Time;durP1;ratioP1;P1;durP2;ratioP2;P2;SDS_P1;SDS_P2;PMS_P1;PMS_P2;Temp;Humidity;BMP_temperature;BMP_pressure;BME280_temperature;BME280_humidity;BME280_pressure;Samples;Min_cycle;Max_cycle;Signal;HPM_P1;HPM_P2
2022/12/15 03:01:18;;;;;;;41.40;33.87;;;-0.50;99.90;;;;;;5595295;23;20500;-82
2022/12/15 03:03:47;;;;;;;41.40;33.43;;;-0.60;99.90;;;;;;4907440;29;20491;-83
2022/12/15 03:06:15;;;;;;;41.20;32.07;;;-0.60;99.90;;;;;;4908007;29;20997;-80
2022/12/15 03:08:42;;;;;;;39.80;34.07;;;-0.60;99.90;;;;;;4906763;29;20464;-80
2022/12/15 03:11:08;;;;;;;41.90;33.70;;;-0.70;99.90;;;;;;4910687;29;20467;-80
2022/12/15 03:13:35;;;;;;;37.37;32.03;;;-0.60;99.90;;;;;;4908174;29;20456;-80
2022/12/15 03:16:02;;;;;;;39.57;32.37;;;-0.60;99.90;;;;;;4903469;29;20456;-79
2022/12/15 03:18:30;;;;;;;37.13;31.33;;;-0.60;99.90;;;;;;4908407;29;20495;-83
2022/12/15 03:20:57;;;;;;;38.70;31.93;;;-0.60;99.90;;;;;;4907212;29;20461;-82
2022/12/15 03:23:24;;;;;;;39.30;31.70;;;-0.60;99.90;;;;;;4906165;29;20938;-80
2022/12/15 03:25:51;;;;;;;37.03;31.10;;;-0.60;99.90;;;;;;4907278;29;20449;-80
2022/12/15 03:28:18;;;;;;;40.37;31.53;;;-0.60;99.90;;;;;;4909173;29;20496;-80
2022/12/15 03:30:45;;;;;;;41.53;33.20;;;-0.60;99.90;;;;;;4909152;29;20469;-80
2022/12/15 03:33:12;;;;;;;40.37;32.20;;;-0.60;99.90;;;;;;4907738;29;20452;-80
2022/12/15 03:35:40;;;;;;;37.87;32.23;;;-0.60;99.90;;;;;;4909818;29;20448;-79
2022/12/15 03:38:07;;;;;;;35.83;30.90;;;-0.60;99.90;;;;;;4908486;29;20816;-80
2022/12/15 03:40:34;;;;;;;35.00;30.63;;;-0.60;99.90;;;;;;4906514;29;20459;-80
2022/12/15 03:43:01;;;;;;;37.23;30.77;;;-0.60;99.90;;;;;;4902228;29;20493;-78
2022/12/15 03:45:28;;;;;;;43.87;33.37;;;-0.60;99.90;;;;;;4898342;29;20465;-79
2022/12/15 03:47:56;;;;;;;39.43;34.00;;;-0.70;99.90;;;;;;4898047;29;20469;-83
2022/12/15 03:50:26;;;;;;;39.70;31.87;;;-0.70;99.90;;;;;;4909489;29;20481;-84
2022/12/15 03:52:56;;;;;;;40.37;32.43;;;-0.70;99.90;;;;;;4907307;29;20446;-84
2022/12/15 03:55:23;;;;;;;40.57;32.83;;;-0.70;99.90;;;;;;4908668;29;20479;-81
2022/12/15 03:57:51;;;;;;;43.03;33.17;;;-0.70;99.90;;;;;;4908318;29;20442;-83
2022/12/15 04:00:19;;;;;;;42.33;32.97;;;-0.70;99.90;;;;;;4909005;29;20450;-83
2022/12/15 04:02:47;;;;;;;41.60;33.23;;;-0.70;99.90;;;;;;4905999;29;20480;-83
2022/12/15 04:05:17;;;;;;;38.20;33.63;;;-0.70;99.90;;;;;;4902009;29;20460;-83
2022/12/15 04:07:43;;;;;;;41.53;33.03;;;-0.60;99.90;;;;;;4911022;29;20444;-84
2022/12/15 04:10:12;;;;;;;39.90;32.97;;;-0.70;99.90;;;;;;4902731;29;20930;-84
2022/12/15 04:12:39;;;;;;;39.63;33.83;;;-0.60;99.90;;;;;;4900734;29;20476;-83
2022/12/15 04:15:08;;;;;;;39.00;33.17;;;-0.70;99.90;;;;;;4907454;29;20452;-83
2022/12/15 04:17:35;;;;;;;41.53;32.70;;;-0.70;99.90;;;;;;4911427;29;20525;-84
2022/12/15 04:20:11;;;;;;;43.73;34.80;;;-0.70;99.90;;;;;;4907535;29;20441;-84
2022/12/15 04:22:40;;;;;;;40.60;32.27;;;-0.70;99.90;;;;;;4905257;29;20481;-85
2022/12/15 05:33:55;;;;;;;44.77;36.53;;;-0.50;99.90;;;;;;4904016;29;20526;-78
2022/12/15 05:36:23;;;;;;;45.27;37.27;;;-0.60;99.90;;;;;;4906256;29;20448;-80
2022/12/15 05:38:50;;;;;;;44.03;35.07;;;-0.60;99.90;;;;;;4905110;29;20440;-80
2022/12/15 05:41:18;;;;;;;44.70;36.67;;;-0.60;99.90;;;;;;4904482;29;20472;-82
2022/12/15 05:43:45;;;;;;;43.57;36.10;;;-0.60;99.90;;;;;;4902633;29;20512;-82
2022/12/15 05:46:13;;;;;;;41.63;35.53;;;-0.60;99.90;;;;;;4907001;29;20448;-83
2022/12/15 05:48:40;;;;;;;41.00;33.60;;;-0.60;99.90;;;;;;4904675;29;21185;-82
2022/12/15 05:51:10;;;;;;;40.37;34.70;;;-0.60;99.90;;;;;;4902658;29;20465;-82
2022/12/15 05:53:38;;;;;;;41.83;34.90;;;-0.60;99.90;;;;;;4904286;29;20456;-82
2022/12/15 05:56:07;;;;;;;42.67;35.47;;;-0.60;99.90;;;;;;4905148;29;20445;-82
2022/12/15 05:58:34;;;;;;;42.97;34.53;;;-0.60;99.90;;;;;;4904082;29;20554;-82
2022/12/15 06:01:05;;;;;;;42.67;36.00;;;-0.60;99.90;;;;;;4903158;29;20497;-82
2022/12/15 06:03:32;;;;;;;42.93;35.80;;;-0.60;99.90;;;;;;4900871;29;20505;-82
2022/12/15 06:06:00;;;;;;;42.27;35.03;;;-0.60;99.90;;;;;;4906691;29;20445;-82
2022/12/15 06:08:29;;;;;;;43.60;35.57;;;-0.60;99.90;;;;;;4901424;29;20441;-80
2022/12/15 06:10:56;;;;;;;43.63;36.37;;;-0.60;99.90;;;;;;4899891;29;20560;-80
2022/12/15 06:13:24;;;;;;;46.67;37.27;;;-0.60;99.90;;;;;;4907559;29;20436;-80
2022/12/15 06:15:56;;;;;;;49.00;37.23;;;-0.60;99.90;;;;;;4903995;29;20873;-81
2022/12/15 06:18:23;;;;;;;42.83;34.43;;;-0.60;99.90;;;;;;4908216;29;20540;-82
2022/12/15 06:20:56;;;;;;;47.83;36.10;;;-0.60;99.90;;;;;;4904560;29;20836;-81
2022/12/15 06:23:23;;;;;;;47.07;39.10;;;-0.60;99.90;;;;;;4906367;29;21240;-81
2022/12/15 06:25:51;;;;;;;42.93;36.70;;;-0.60;99.90;;;;;;4902961;29;20456;-81
2022/12/15 06:28:22;;;;;;;46.90;35.80;;;-0.60;99.90;;;;;;4905792;29;20441;-81
2022/12/15 06:30:50;;;;;;;45.23;36.57;;;-0.60;99.90;;;;;;4911155;29;20644;-82
2022/12/15 06:33:17;;;;;;;40.43;35.33;;;-0.60;99.90;;;;;;4907534;29;20984;-81
2022/12/15 06:35:44;;;;;;;42.90;34.13;;;-0.60;99.90;;;;;;4909033;29;20440;-81
2022/12/15 06:38:11;;;;;;;47.93;35.73;;;-0.60;99.90;;;;;;4908958;29;20552;-82
2022/12/15 06:40:39;;;;;;;41.90;35.67;;;-0.70;99.90;;;;;;4901759;29;20504;-81
2022/12/15 06:43:08;;;;;;;41.70;34.63;;;-0.60;99.90;;;;;;4907158;29;20484;-81
2022/12/15 06:45:35;;;;;;;43.90;35.80;;;-0.70;99.90;;;;;;4908064;29;20448;-82
2022/12/15 06:48:02;;;;;;;44.40;36.17;;;-0.60;99.90;;;;;;4912152;29;20447;-82
2022/12/15 06:50:28;;;;;;;44.00;36.37;;;-0.60;99.90;;;;;;4905773;29;20976;-81
2022/12/15 06:52:56;;;;;;;40.17;34.20;;;-0.60;99.90;;;;;;4907393;29;20442;-82
2022/12/15 06:55:22;;;;;;;51.00;38.80;;;-0.60;99.90;;;;;;4909527;29;20443;-81
2022/12/15 06:57:49;;;;;;;47.77;38.03;;;-0.50;99.90;;;;;;4906831;29;20513;-82
2022/12/15 07:00:18;;;;;;;48.93;38.00;;;-0.50;99.90;;;;;;4906948;29;20501;-80
2022/12/15 07:02:45;;;;;;;42.37;37.60;;;-0.50;99.90;;;;;;4908554;29;21075;-81
2022/12/15 07:05:12;;;;;;;45.83;35.83;;;-0.60;99.90;;;;;;4909758;29;20473;-81
2022/12/15 07:07:39;;;;;;;43.00;36.90;;;-0.60;99.90;;;;;;4905222;29;20454;-82
2022/12/15 07:10:06;;;;;;;42.30;36.00;;;-0.60;99.90;;;;;;4909531;29;20463;-83
2022/12/15 07:12:33;;;;;;;46.03;36.63;;;-0.70;99.90;;;;;;4909333;29;20972;-84
2022/12/15 07:15:00;;;;;;;45.97;35.97;;;-0.70;99.90;;;;;;4914208;29;20895;-83
2022/12/15 07:17:29;;;;;;;43.80;35.03;;;-0.70;99.90;;;;;;4902229;29;20449;-81
2022/12/15 07:19:56;;;;;;;44.27;37.27;;;-0.60;99.90;;;;;;4906867;29;20548;-81
2022/12/15 07:22:23;;;;;;;46.00;35.40;;;-0.60;99.90;;;;;;4910755;29;20452;-81
2022/12/15 07:24:50;;;;;;;47.07;35.30;;;-0.70;99.90;;;;;;4902525;29;20487;-81
2022/12/15 07:27:16;;;;;;;41.17;33.70;;;-0.60;99.90;;;;;;4906929;29;20457;-81
2022/12/15 07:29:43;;;;;;;45.00;36.30;;;-0.60;99.90;;;;;;4905056;29;20460;-81
2022/12/15 07:32:10;;;;;;;44.30;34.87;;;-0.60;99.90;;;;;;4908445;29;20488;-81
2022/12/15 07:34:39;;;;;;;46.53;35.67;;;-0.60;99.90;;;;;;4909190;29;20455;-81
2022/12/15 07:37:05;;;;;;;46.17;35.23;;;-0.60;99.90;;;;;;4906611;29;20441;-82
2022/12/15 07:39:32;;;;;;;46.67;36.00;;;-0.50;99.90;;;;;;4906320;29;20443;-80
2022/12/15 07:41:59;;;;;;;43.97;35.83;;;-0.50;99.90;;;;;;4905328;29;20481;-81
2022/12/15 07:44:28;;;;;;;50.37;36.07;;;-0.50;99.90;;;;;;4909809;29;20484;-80
2022/12/15 07:46:55;;;;;;;46.10;35.17;;;-0.50;99.90;;;;;;4906836;29;20547;-82
2022/12/15 07:49:22;;;;;;;45.30;35.67;;;-0.50;99.90;;;;;;4904212;29;20457;-81
2022/12/15 07:51:50;;;;;;;44.77;36.37;;;-0.50;99.90;;;;;;4904426;29;20521;-80
2022/12/15 07:54:17;;;;;;;44.13;36.53;;;-0.50;99.90;;;;;;4907973;29;20449;-81
2022/12/15 07:56:45;;;;;;;45.60;37.03;;;-0.40;99.90;;;;;;4906501;29;20457;-81
2022/12/15 07:59:12;;;;;;;45.30;36.80;;;-0.30;99.90;;;;;;4907271;29;20461;-81
2022/12/15 08:01:39;;;;;;;48.47;37.60;;;-0.30;99.90;;;;;;4905557;29;20485;-81
2022/12/15 08:04:06;;;;;;;44.90;35.77;;;-0.30;99.90;;;;;;4907116;29;20487;-82
2022/12/15 08:06:33;;;;;;;43.77;36.10;;;-0.30;99.90;;;;;;4908592;29;21026;-82
2022/12/15 08:09:01;;;;;;;43.70;35.97;;;-0.30;99.90;;;;;;4908605;29;20453;-81
2022/12/15 08:11:33;;;;;;;45.67;35.90;;;-0.30;99.90;;;;;;4895691;29;20484;-82
2022/12/15 08:14:00;;;;;;;47.30;35.20;;;-0.30;99.90;;;;;;4902785;29;20464;-82
2022/12/15 08:16:27;;;;;;;46.07;35.97;;;-0.20;99.90;;;;;;4905687;29;20517;-85
2022/12/15 08:18:56;;;;;;;45.20;35.63;;;-0.20;99.90;;;;;;4905777;29;20568;-84
2022/12/15 08:21:24;;;;;;;42.70;34.80;;;-0.20;99.90;;;;;;4909472;29;21263;-84
2022/12/15 08:23:50;;;;;;;43.07;35.07;;;-0.10;99.90;;;;;;4900606;29;20966;-83
2022/12/15 08:26:19;;;;;;;40.43;35.37;;;-0.10;99.90;;;;;;4908386;29;20452;-83
2022/12/15 08:28:46;;;;;;;45.87;35.43;;;0.00;99.90;;;;;;4904920;29;20511;-84
2022/12/15 08:31:15;;;;;;;43.20;35.33;;;-0.10;99.90;;;;;;4906947;29;20476;-84
2022/12/15 08:33:43;;;;;;;46.03;35.80;;;0.00;99.90;;;;;;4905994;29;20472;-83
2022/12/15 08:36:12;;;;;;;44.47;34.97;;;0.00;99.90;;;;;;4903296;29;20449;-78
2022/12/15 08:38:40;;;;;;;44.90;37.37;;;0.00;99.90;;;;;;4906177;29;20885;-85
2022/12/15 08:41:08;;;;;;;45.93;36.67;;;0.10;99.90;;;;;;4906512;29;20476;-85
2022/12/15 08:43:37;;;;;;;49.30;35.73;;;0.10;99.90;;;;;;4899490;29;20459;-85
2022/12/15 08:46:04;;;;;;;41.13;33.40;;;0.30;99.90;;;;;;4905250;29;20483;-84
2022/12/15 08:48:31;;;;;;;40.37;33.57;;;0.40;99.90;;;;;;4905071;29;20462;-84
2022/12/15 08:50:59;;;;;;;40.37;33.30;;;0.50;99.90;;;;;;4910353;29;20842;-83
2022/12/15 08:53:26;;;;;;;39.73;33.53;;;0.60;99.90;;;;;;4903139;29;20867;-80
2022/12/15 08:55:53;;;;;;;46.77;36.10;;;0.70;99.90;;;;;;4905052;29;20467;-81
2022/12/15 08:58:20;;;;;;;44.03;35.83;;;0.60;99.90;;;;;;4906592;29;20451;-82
2022/12/15 09:00:48;;;;;;;44.17;35.70;;;0.70;99.90;;;;;;4906944;29;20483;-80
2022/12/15 09:03:15;;;;;;;42.17;34.93;;;0.60;99.90;;;;;;4906479;29;20864;-81
2022/12/15 09:05:42;;;;;;;45.57;35.27;;;0.60;99.90;;;;;;4906129;29;20485;-80
2022/12/15 09:08:08;;;;;;;46.23;36.80;;;0.60;99.90;;;;;;4905914;29;20446;-80
2022/12/15 09:10:40;;;;;;;44.93;36.60;;;0.70;99.90;;;;;;4902187;29;20542;-80
2022/12/15 09:13:07;;;;;;;48.10;36.37;;;0.80;99.90;;;;;;4908647;29;20984;-82
2022/12/15 09:15:34;;;;;;;47.03;36.13;;;1.00;99.90;;;;;;4909315;29;20441;-80
2022/12/15 09:18:02;;;;;;;44.83;35.40;;;1.30;99.90;;;;;;4906903;29;20458;-81
2022/12/15 09:20:29;;;;;;;46.63;36.43;;;1.50;99.90;;;;;;4893333;29;20506;-81
2022/12/15 09:22:57;;;;;;;48.17;35.23;;;1.50;99.90;;;;;;4901831;29;20863;-79
2022/12/15 09:25:24;;;;;;;42.73;35.63;;;1.40;99.90;;;;;;4907948;29;20947;-80
2022/12/15 09:27:51;;;;;;;42.93;34.97;;;1.30;99.90;;;;;;4905561;29;20433;-81
2022/12/15 09:30:18;;;;;;;44.07;35.83;;;1.30;99.90;;;;;;4905866;29;21027;-80
2022/12/15 09:32:45;;;;;;;45.87;34.80;;;1.20;99.90;;;;;;4903810;29;20480;-80
2022/12/15 09:35:13;;;;;;;44.17;35.03;;;1.00;99.90;;;;;;4905183;29;20486;-80
2022/12/15 09:37:40;;;;;;;47.30;36.03;;;1.00;99.90;;;;;;4900815;29;20455;-80
2022/12/15 09:40:11;;;;;;;46.67;34.87;;;0.80;99.90;;;;;;4907681;29;20453;-80
2022/12/15 09:42:38;;;;;;;43.23;35.37;;;0.80;99.90;;;;;;4904037;29;20485;-80
2022/12/15 09:45:13;;;;;;;47.00;36.50;;;0.90;99.90;;;;;;4901604;29;21080;-80
2022/12/15 09:47:46;;;;;;;45.07;35.83;;;1.00;99.90;;;;;;4904073;29;20976;-80
2022/12/15 09:50:16;;;;;;;45.00;35.30;;;0.90;99.90;;;;;;4903683;29;20880;-81
2022/12/15 09:52:48;;;;;;;47.43;36.67;;;0.90;99.90;;;;;;4892962;29;20485;-80
2022/12/15 09:55:21;;;;;;;50.50;39.07;;;0.90;99.90;;;;;;4899070;29;20449;-81
2022/12/15 09:57:53;;;;;;;45.00;37.33;;;0.90;99.90;;;;;;4905919;29;20490;-81
2022/12/15 10:00:24;;;;;;;46.37;36.77;;;1.00;99.90;;;;;;4900198;29;20239;-81
2022/12/15 10:03:21;;;;;;;46.43;37.40;;;1.00;99.90;;;;;;4907078;29;20985;-81
2022/12/15 10:06:11;;;;;;;47.07;36.07;;;1.10;99.90;;;;;;4900711;29;20483;-81
2022/12/15 10:08:40;;;;;;;44.47;35.33;;;1.20;99.90;;;;;;4896002;29;20475;-80
2022/12/15 10:11:18;;;;;;;45.10;34.97;;;1.30;99.90;;;;;;4900288;29;20224;-81
2022/12/15 10:13:51;;;;;;;49.30;37.00;;;1.40;99.90;;;;;;4902103;29;20460;-81
2022/12/15 10:16:24;;;;;;;43.77;34.87;;;1.30;99.90;;;;;;4905385;29;20252;-81
2022/12/15 10:19:04;;;;;;;47.20;34.93;;;1.10;99.90;;;;;;4904319;29;20209;-84
2022/12/15 10:21:33;;;;;;;53.43;36.77;;;1.20;99.90;;;;;;4897517;29;20493;-81
2022/12/15 10:24:16;;;;;;;45.40;36.63;;;1.10;99.90;;;;;;4904746;29;20472;-81
2022/12/15 10:26:47;;;;;;;43.30;35.17;;;1.10;99.90;;;;;;4898098;29;21213;-81
2022/12/15 10:29:27;;;;;;;45.63;34.43;;;1.10;99.90;;;;;;4905790;29;20203;-80
2022/12/15 10:32:00;;;;;;;41.13;33.20;;;1.20;99.90;;;;;;4903437;29;20612;-82
2022/12/15 10:34:28;;;;;;;46.83;35.30;;;1.30;99.90;;;;;;4901504;29;20264;-83
2022/12/15 10:36:58;;;;;;;47.63;37.27;;;1.20;99.90;;;;;;4899550;29;20196;-80
2022/12/15 10:39:37;;;;;;;43.70;34.80;;;1.10;99.90;;;;;;4904729;29;20881;-83
2022/12/15 10:42:14;;;;;;;46.57;35.10;;;1.20;99.90;;;;;;4906747;29;20584;-83
2022/12/15 10:44:43;;;;;;;45.07;36.07;;;1.10;99.90;;;;;;4905330;29;20479;-83
2022/12/15 10:47:15;;;;;;;47.40;35.37;;;1.20;99.90;;;;;;4907270;29;20444;-82
2022/12/15 10:49:42;;;;;;;45.60;35.30;;;1.20;99.90;;;;;;4905187;29;20460;-82
2022/12/15 10:52:23;;;;;;;45.27;35.80;;;1.10;99.90;;;;;;4903135;29;20467;-81
2022/12/15 10:54:53;;;;;;;50.33;36.53;;;1.10;99.90;;;;;;4904749;29;20450;-81
2022/12/15 10:57:22;;;;;;;48.03;35.23;;;1.10;99.90;;;;;;4905954;29;20459;-82
2022/12/15 10:59:49;;;;;;;51.07;36.03;;;1.20;99.90;;;;;;4911123;29;20508;-79
2022/12/15 11:02:31;;;;;;;44.93;35.63;;;1.30;99.90;;;;;;4913477;29;20554;-80
2022/12/15 11:05:00;;;;;;;45.47;34.87;;;1.40;99.90;;;;;;4909847;29;20527;-81
2022/12/15 11:07:36;;;;;;;42.57;34.60;;;1.50;99.90;;;;;;4904353;29;20448;-81
2022/12/15 11:10:17;;;;;;;48.97;35.63;;;1.60;99.90;;;;;;4900318;29;20455;-82
2022/12/15 11:12:52;;;;;;;45.90;34.77;;;1.70;99.90;;;;;;4903587;29;20475;-81
2022/12/15 11:15:44;;;;;;;43.03;34.87;;;1.70;99.90;;;;;;4906283;29;20532;-82
2022/12/15 11:18:22;;;;;;;47.10;38.30;;;1.70;99.90;;;;;;4910277;29;20462;-82
2022/12/15 11:20:54;;;;;;;46.77;36.63;;;1.70;99.90;;;;;;4914863;29;20469;-82
2022/12/15 11:23:30;;;;;;;40.20;33.63;;;1.50;99.90;;;;;;4901601;29;20457;-81
2022/12/15 11:26:00;;;;;;;42.07;35.53;;;1.60;99.90;;;;;;4900112;29;21088;-81
2022/12/15 11:28:36;;;;;;;45.73;36.43;;;1.50;99.90;;;;;;4895787;29;20825;-81
2022/12/15 11:31:13;;;;;;;44.30;35.30;;;1.50;99.90;;;;;;4910947;29;20468;-81
2022/12/15 11:33:40;;;;;;;41.90;34.17;;;1.60;99.90;;;;;;4909833;29;20513;-82
2022/12/15 11:36:14;;;;;;;43.00;36.07;;;1.70;99.90;;;;;;4908878;29;20479;-80
2022/12/15 11:38:46;;;;;;;41.53;34.43;;;1.90;99.90;;;;;;4912809;29;20215;-80
2022/12/15 11:41:34;;;;;;;43.40;33.80;;;1.90;99.90;;;;;;4911086;29;20476;-80
2022/12/15 11:44:23;;;;;;;45.90;36.87;;;2.10;99.90;;;;;;4911775;29;20447;-80
2022/12/15 11:46:59;;;;;;;47.37;35.57;;;2.10;99.90;;;;;;4908092;29;20480;-81
2022/12/15 11:49:46;;;;;;;45.13;35.33;;;2.10;99.90;;;;;;4906982;29;20251;-80
2022/12/15 11:52:28;;;;;;;50.23;36.63;;;2.20;99.90;;;;;;4913731;29;20484;-81
2022/12/15 11:55:06;;;;;;;40.27;34.33;;;2.20;99.90;;;;;;4906972;29;20205;-81
2022/12/15 11:58:02;;;;;;;47.47;36.17;;;2.20;99.90;;;;;;4893048;29;20661;-81
2022/12/15 12:00:33;;;;;;;45.37;35.33;;;2.20;99.90;;;;;;4910460;29;20448;-79
2022/12/15 12:03:11;;;;;;;42.77;34.27;;;2.10;99.90;;;;;;4907609;29;20208;-84
2022/12/15 12:05:51;;;;;;;45.33;34.37;;;2.20;99.90;;;;;;4888078;29;20231;-82
2022/12/15 12:08:48;;;;;;;45.97;35.17;;;2.30;99.90;;;;;;4888243;29;20296;-82
2022/12/15 12:11:18;;;;;;;44.90;34.73;;;2.40;99.90;;;;;;4887708;29;20225;-82
2022/12/15 12:13:55;;;;;;;46.57;37.47;;;2.30;99.90;;;;;;4901884;29;20208;-82
2022/12/15 12:16:32;;;;;;;42.13;34.73;;;2.20;99.90;;;;;;4907280;29;20204;-82
2022/12/15 12:19:04;;;;;;;46.57;34.73;;;2.20;99.90;;;;;;4907742;29;20210;-83
2022/12/15 12:21:36;;;;;;;44.23;34.20;;;2.30;99.90;;;;;;4898066;29;20640;-82
2022/12/15 12:24:08;;;;;;;44.20;35.13;;;2.40;99.90;;;;;;4904097;29;20677;-83
2022/12/15 12:26:41;;;;;;;41.70;34.23;;;2.30;99.90;;;;;;4908200;29;20228;-83
2022/12/15 12:29:16;;;;;;;41.77;34.77;;;2.20;99.90;;;;;;4907435;29;20676;-82
2022/12/15 12:31:51;;;;;;;49.70;35.63;;;2.10;99.90;;;;;;4909602;29;20480;-83
2022/12/15 12:34:26;;;;;;;38.83;32.60;;;2.00;99.90;;;;;;4908120;29;20928;-83
2022/12/15 12:36:54;;;;;;;45.57;35.43;;;2.10;99.90;;;;;;4912102;29;20195;-82
2022/12/15 12:39:24;;;;;;;40.43;33.70;;;2.20;99.90;;;;;;4906070;29;20211;-82
2022/12/15 12:42:00;;;;;;;41.60;34.03;;;2.30;99.90;;;;;;4911193;29;20224;-82
2022/12/15 12:44:31;;;;;;;37.77;33.67;;;2.30;99.90;;;;;;4904885;29;20211;-82
2022/12/15 12:47:04;;;;;;;42.40;34.57;;;2.20;99.90;;;;;;4905902;29;20701;-82
2022/12/15 12:49:37;;;;;;;38.27;31.83;;;2.00;99.90;;;;;;4900532;29;20268;-82
2022/12/15 12:52:06;;;;;;;40.17;33.27;;;2.00;99.90;;;;;;4904938;29;20485;-83
2022/12/15 12:54:48;;;;;;;38.27;33.30;;;2.00;99.90;;;;;;4912670;29;20574;-83
2022/12/15 12:57:39;;;;;;;43.77;35.20;;;1.90;99.90;;;;;;4906005;29;20658;-83
2022/12/15 13:00:19;;;;;;;37.97;32.57;;;1.70;99.90;;;;;;4907104;29;20444;-82
2022/12/15 13:03:08;;;;;;;40.93;33.97;;;1.70;99.90;;;;;;4908979;29;20480;-82
2022/12/15 13:05:37;;;;;;;39.20;32.67;;;1.60;99.90;;;;;;4908705;29;20476;-82
2022/12/15 13:08:29;;;;;;;38.77;34.00;;;1.50;99.90;;;;;;4907382;29;20455;-82
2022/12/15 13:10:56;;;;;;;42.67;34.40;;;1.50;99.90;;;;;;4906717;29;20479;-82
2022/12/15 13:13:44;;;;;;;42.73;34.20;;;1.50;99.90;;;;;;4905445;29;20461;-82
2022/12/15 13:16:19;;;;;;;45.17;33.77;;;1.50;99.90;;;;;;4903216;29;20464;-82
2022/12/15 13:18:57;;;;;;;43.33;33.10;;;1.50;99.90;;;;;;4901493;29;20862;-82
2022/12/15 13:21:53;;;;;;;41.37;34.23;;;1.50;99.90;;;;;;4909814;29;20473;-82
2022/12/15 13:24:30;;;;;;;39.83;32.70;;;1.40;99.90;;;;;;4905889;29;20576;-82
2022/12/15 13:27:14;;;;;;;40.53;33.20;;;1.40;99.90;;;;;;4907468;29;20468;-82
2022/12/15 13:30:03;;;;;;;39.10;32.90;;;1.40;99.90;;;;;;4898014;29;20448;-82
2022/12/15 13:32:33;;;;;;;40.63;33.53;;;1.50;99.90;;;;;;4907639;29;20523;-82
2022/12/15 13:35:16;;;;;;;43.97;34.07;;;1.50;99.90;;;;;;4908515;29;20448;-82
2022/12/15 13:37:47;;;;;;;40.80;32.63;;;1.50;99.90;;;;;;4901214;29;21050;-82
2022/12/15 13:40:50;;;;;;;42.23;33.17;;;1.50;99.90;;;;;;4905345;29;20969;-82
2022/12/15 13:43:39;;;;;;;41.03;32.60;;;1.30;99.90;;;;;;4901395;29;20467;-82
2022/12/15 13:46:16;;;;;;;42.03;32.50;;;1.30;99.90;;;;;;4901820;29;20473;-82
2022/12/15 13:48:45;;;;;;;40.10;31.10;;;1.40;99.90;;;;;;4910221;29;20536;-82
2022/12/15 13:51:27;;;;;;;40.37;32.27;;;1.50;99.90;;;;;;4906125;29;20528;-81
2022/12/15 13:53:59;;;;;;;37.17;32.43;;;1.50;99.90;;;;;;4899755;29;20502;-80
2022/12/15 13:56:41;;;;;;;42.87;33.10;;;1.50;99.90;;;;;;4899580;29;20845;-80
2022/12/15 13:59:18;;;;;;;42.60;33.47;;;1.60;99.90;;;;;;4897774;29;20760;-82
2022/12/15 14:01:50;;;;;;;39.00;32.43;;;1.60;99.90;;;;;;4907385;29;20499;-81
2022/12/15 14:04:18;;;;;;;39.60;33.10;;;1.60;99.90;;;;;;4905915;29;20456;-82
2022/12/15 14:06:48;;;;;;;37.30;31.57;;;1.60;99.90;;;;;;4908386;29;20473;-84
2022/12/15 14:09:19;;;;;;;41.20;32.47;;;1.60;99.90;;;;;;4907104;29;20526;-81
2022/12/15 14:11:48;;;;;;;40.20;32.43;;;1.70;99.90;;;;;;4908491;29;20481;-81
2022/12/15 14:14:19;;;;;;;39.00;32.00;;;1.60;99.90;;;;;;4906929;29;20445;-82
2022/12/15 14:16:51;;;;;;;40.10;35.73;;;1.60;99.90;;;;;;4908151;29;20435;-79
2022/12/15 14:19:19;;;;;;;35.00;31.03;;;1.60;99.90;;;;;;4908480;29;20448;-80
2022/12/15 14:21:50;;;;;;;40.23;33.33;;;1.50;99.90;;;;;;4912972;29;20870;-80
2022/12/15 14:24:26;;;;;;;40.87;33.87;;;1.50;99.90;;;;;;4910252;29;20212;-80
2022/12/15 14:26:54;;;;;;;35.90;31.67;;;1.40;99.90;;;;;;4908104;29;20484;-81
2022/12/15 14:29:21;;;;;;;38.43;32.27;;;1.40;99.90;;;;;;4899528;29;20453;-79
2022/12/15 14:31:51;;;;;;;43.40;34.03;;;1.40;99.90;;;;;;4909189;29;20396;-80
2022/12/15 14:34:31;;;;;;;41.53;33.20;;;1.40;99.90;;;;;;4900892;29;20236;-80
2022/12/15 14:37:03;;;;;;;46.53;33.47;;;1.30;99.90;;;;;;4909404;29;20450;-81
2022/12/15 14:39:34;;;;;;;40.50;32.30;;;1.30;99.90;;;;;;4896291;29;20454;-80
2022/12/15 14:42:02;;;;;;;40.20;31.80;;;1.30;99.90;;;;;;4899831;29;20483;-78
2022/12/15 14:44:33;;;;;;;41.40;33.90;;;1.30;99.90;;;;;;4895497;29;20468;-78
2022/12/15 14:47:02;;;;;;;42.23;32.43;;;1.20;99.90;;;;;;4901098;29;21025;-79
2022/12/15 14:49:33;;;;;;;41.30;31.83;;;1.20;99.90;;;;;;4899869;29;20444;-79
2022/12/15 14:52:03;;;;;;;41.20;33.03;;;1.20;99.90;;;;;;4902875;29;20482;-78
2022/12/15 14:54:35;;;;;;;37.57;31.50;;;1.10;99.90;;;;;;4903503;29;20511;-78
2022/12/15 14:57:04;;;;;;;41.23;32.90;;;1.10;99.90;;;;;;4900949;29;20456;-78
2022/12/15 14:59:33;;;;;;;38.13;32.97;;;1.10;99.90;;;;;;4898778;29;20807;-77
2022/12/15 15:02:10;;;;;;;39.47;32.50;;;1.10;99.90;;;;;;4908276;29;20545;-81
2022/12/15 15:04:40;;;;;;;40.63;33.77;;;1.10;99.90;;;;;;4897575;29;20973;-80
2022/12/15 15:07:16;;;;;;;41.77;32.53;;;1.00;99.90;;;;;;4904400;29;20472;-80
2022/12/15 15:09:44;;;;;;;45.37;34.93;;;1.00;99.90;;;;;;4907937;29;20891;-82
2022/12/15 15:12:15;;;;;;;42.43;34.03;;;1.00;99.90;;;;;;4909973;29;20518;-80
2022/12/15 15:14:44;;;;;;;40.60;32.80;;;1.00;99.90;;;;;;4909688;29;20455;-80
2022/12/15 15:17:21;;;;;;;39.33;32.13;;;1.00;99.90;;;;;;4907668;29;20466;-79
2022/12/15 15:19:53;;;;;;;41.23;33.00;;;1.00;99.90;;;;;;4906580;29;20531;-78
2022/12/15 15:22:32;;;;;;;42.77;33.40;;;1.00;99.90;;;;;;4909049;29;21005;-80
2022/12/15 15:24:59;;;;;;;38.27;32.73;;;1.00;99.90;;;;;;4918739;29;20999;-79
2022/12/15 15:27:32;;;;;;;41.90;33.63;;;0.90;99.90;;;;;;4910029;29;20487;-80
2022/12/15 15:30:18;;;;;;;45.50;33.63;;;0.90;99.90;;;;;;4907539;29;20477;-79
2022/12/15 15:32:53;;;;;;;42.47;33.83;;;1.00;99.90;;;;;;4901779;29;20455;-79
2022/12/15 15:35:22;;;;;;;42.87;32.60;;;0.90;99.90;;;;;;4908703;29;20523;-79
2022/12/15 15:37:51;;;;;;;44.33;36.22;;;0.80;99.90;;;;;;4910418;29;20801;-80
2022/12/15 15:40:18;;;;;;;42.90;33.23;;;0.80;99.90;;;;;;4902851;29;20211;-80
2022/12/15 15:42:46;;;;;;;44.67;33.37;;;0.80;99.90;;;;;;4901636;29;20485;-79
2022/12/15 15:45:13;;;;;;;45.33;33.63;;;0.90;99.90;;;;;;4905958;29;20459;-80
2022/12/15 15:47:42;;;;;;;43.40;34.30;;;0.80;99.90;;;;;;4888002;29;20486;-80
2022/12/15 15:50:13;;;;;;;40.17;32.20;;;0.80;99.90;;;;;;4890046;29;20496;-79
2022/12/15 15:52:43;;;;;;;39.43;32.00;;;0.80;99.90;;;;;;4882463;29;20469;-79
2022/12/15 15:55:14;;;;;;;46.00;34.27;;;0.90;99.90;;;;;;4904806;29;20461;-80
2022/12/15 15:57:41;;;;;;;42.83;33.57;;;0.90;99.90;;;;;;4886912;29;20515;-80
2022/12/15 16:00:17;;;;;;;43.17;33.70;;;0.90;99.90;;;;;;4886050;29;20531;-81
2022/12/15 16:02:44;;;;;;;40.47;31.53;;;0.90;99.90;;;;;;4909007;29;21010;-81
2022/12/15 16:05:12;;;;;;;45.13;35.23;;;0.90;99.90;;;;;;4909151;29;20471;-81
2022/12/15 16:07:39;;;;;;;41.33;32.60;;;0.80;99.90;;;;;;4912681;29;20475;-81
2022/12/15 16:10:12;;;;;;;38.57;32.03;;;0.80;99.90;;;;;;4910537;29;20450;-83
2022/12/15 16:12:42;;;;;;;41.80;33.57;;;0.80;99.90;;;;;;4911532;29;21014;-81
2022/12/15 16:15:15;;;;;;;38.97;31.43;;;0.80;99.90;;;;;;4908069;29;20581;-79
2022/12/15 16:17:42;;;;;;;38.13;32.50;;;0.80;99.90;;;;;;4902760;29;20477;-79
2022/12/15 16:20:12;;;;;;;36.80;31.30;;;0.90;99.90;;;;;;4912298;29;20494;-81
2022/12/15 16:22:39;;;;;;;37.03;30.10;;;0.80;99.90;;;;;;4913969;29;20494;-81
2022/12/15 16:25:16;;;;;;;39.47;32.23;;;0.80;99.90;;;;;;4908581;29;20498;-81
2022/12/15 16:27:43;;;;;;;40.33;32.63;;;0.90;99.90;;;;;;4909102;29;20514;-81
2022/12/15 16:30:18;;;;;;;38.37;31.30;;;0.80;99.90;;;;;;4904220;29;20519;-80
2022/12/15 16:32:45;;;;;;;37.00;30.87;;;0.80;99.90;;;;;;4909555;29;21010;-81
2022/12/15 16:35:12;;;;;;;44.20;32.50;;;0.80;99.90;;;;;;4910829;29;20936;-81
2022/12/15 16:37:45;;;;;;;37.13;31.70;;;0.80;99.90;;;;;;4911458;29;20435;-81
2022/12/15 16:40:21;;;;;;;40.37;32.37;;;0.80;99.90;;;;;;4911357;29;20964;-81
2022/12/15 16:42:56;;;;;;;38.57;31.10;;;0.90;99.90;;;;;;4913103;29;20492;-79
2022/12/15 16:45:24;;;;;;;35.00;30.83;;;0.80;99.90;;;;;;4909556;29;20503;-80
2022/12/15 16:47:52;;;;;;;43.50;32.60;;;0.80;99.90;;;;;;4909950;29;20488;-81
2022/12/15 16:50:21;;;;;;;38.30;31.23;;;0.90;99.90;;;;;;4909645;29;20433;-82
2022/12/15 16:52:52;;;;;;;40.77;32.47;;;0.80;99.90;;;;;;4910387;29;20594;-81
2022/12/15 16:55:26;;;;;;;34.77;30.97;;;0.80;99.90;;;;;;4910745;29;20488;-79
2022/12/15 16:57:55;;;;;;;35.50;30.63;;;0.80;99.90;;;;;;4910762;29;20498;-81
2022/12/15 17:00:24;;;;;;;39.47;32.13;;;0.80;99.90;;;;;;4900486;29;20459;-81
2022/12/15 17:02:51;;;;;;;39.37;31.43;;;0.80;99.90;;;;;;4898712;29;20551;-80